sensor_id;sensor_type;location;lat;lon;timestamp;temperature;humidity
41939;DHT22;23057;48.554;14.454;2022-08-03T00:00:13;15.40;99.90
41939;DHT22;23057;48.554;14.454;2022-08-03T00:02:45;15.30;99.90
41939;DHT22;23057;48.554;14.454;2022-08-03T00:05:15;15.30;99.90
41939;DHT22;23057;48.554;14.454;2022-08-03T00:07:46;15.30;99.90
41939;DHT22;23057;48.554;14.454;2022-08-03T00:10:17;15.20;99.90
41939;DHT22;23057;48.554;14.454;2022-08-03T00:12:48;15.10;99.90
41939;DHT22;23057;48.554;14.454;2022-08-03T00:15:20;15.10;99.90
41939;DHT22;23057;48.554;14.454;2022-08-03T00:17:50;15.10;99.90
41939;DHT22;23057;48.554;14.454;2022-08-03T00:20:22;15.10;99.90
41939;DHT22;23057;48.554;14.454;2022-08-03T00:22:53;15.10;99.90
41939;DHT22;23057;48.554;14.454;2022-08-03T00:25:24;15.10;99.90
41939;DHT22;23057;48.554;14.454;2022-08-03T00:27:55;15.10;99.90
41939;DHT22;23057;48.554;14.454;2022-08-03T00:30:26;15.10;99.90
41939;DHT22;23057;48.554;14.454;2022-08-03T00:32:57;15.00;99.90
41939;DHT22;23057;48.554;14.454;2022-08-03T00:35:29;14.90;99.90
41939;DHT22;23057;48.554;14.454;2022-08-03T00:38:00;14.90;99.90
41939;DHT22;23057;48.554;14.454;2022-08-03T00:40:31;14.90;99.90
41939;DHT22;23057;48.554;14.454;2022-08-03T00:43:03;14.80;99.90
41939;DHT22;23057;48.554;14.454;2022-08-03T00:45:38;14.80;99.90
41939;DHT22;23057;48.554;14.454;2022-08-03T00:48:11;14.80;99.90
41939;DHT22;23057;48.554;14.454;2022-08-03T00:50:42;14.80;99.90
41939;DHT22;23057;48.554;14.454;2022-08-03T00:53:13;14.80;99.90
41939;DHT22;23057;48.554;14.454;2022-08-03T00:55:45;14.80;99.90
41939;DHT22;23057;48.554;14.454;2022-08-03T00:58:16;14.70;99.90
41939;DHT22;23057;48.554;14.454;2022-08-03T01:00:47;14.60;99.90
41939;DHT22;23057;48.554;14.454;2022-08-03T01:03:18;14.70;99.90
41939;DHT22;23057;48.554;14.454;2022-08-03T01:05:51;14.60;99.90
41939;DHT22;23057;48.554;14.454;2022-08-03T01:14:08;14.20;99.90
41939;DHT22;23057;48.554;14.454;2022-08-03T01:16:56;14.10;99.90
41939;DHT22;23057;48.554;14.454;2022-08-03T01:19:43;14.20;99.90
41939;DHT22;23057;48.554;14.454;2022-08-03T01:25:54;14.30;99.90
41939;DHT22;23057;48.554;14.454;2022-08-03T01:28:47;14.10;99.90
41939;DHT22;23057;48.554;14.454;2022-08-03T01:31:47;14.20;99.90
41939;DHT22;23057;48.554;14.454;2022-08-03T01:34:31;14.20;99.90
41939;DHT22;23057;48.554;14.454;2022-08-03T01:37:15;14.30;99.90
41939;DHT22;23057;48.554;14.454;2022-08-03T01:39:56;14.30;99.90
41939;DHT22;23057;48.554;14.454;2022-08-03T01:42:31;14.10;99.90
41939;DHT22;23057;48.554;14.454;2022-08-03T01:45:06;14.00;99.90
41939;DHT22;23057;48.554;14.454;2022-08-03T01:47:41;14.00;99.90
41939;DHT22;23057;48.554;14.454;2022-08-03T01:50:17;13.90;99.90
41939;DHT22;23057;48.554;14.454;2022-08-03T01:52:53;14.00;99.90
41939;DHT22;23057;48.554;14.454;2022-08-03T01:55:27;14.00;99.90
41939;DHT22;23057;48.554;14.454;2022-08-03T01:58:03;13.90;99.90
41939;DHT22;23057;48.554;14.454;2022-08-03T02:00:37;13.90;99.90
41939;DHT22;23057;48.554;14.454;2022-08-03T02:03:11;13.90;99.90
41939;DHT22;23057;48.554;14.454;2022-08-03T02:05:44;13.90;99.90
41939;DHT22;23057;48.554;14.454;2022-08-03T02:08:18;13.80;99.90
41939;DHT22;23057;48.554;14.454;2022-08-03T02:10:49;13.80;99.90
41939;DHT22;23057;48.554;14.454;2022-08-03T02:13:24;13.70;99.90
41939;DHT22;23057;48.554;14.454;2022-08-03T02:15:58;13.70;99.90
41939;DHT22;23057;48.554;14.454;2022-08-03T02:18:33;13.80;99.90
41939;DHT22;23057;48.554;14.454;2022-08-03T02:21:04;13.80;99.90
41939;DHT22;23057;48.554;14.454;2022-08-03T02:23:39;14.00;99.90
41939;DHT22;23057;48.554;14.454;2022-08-03T02:26:11;13.90;99.90
41939;DHT22;23057;48.554;14.454;2022-08-03T02:28:50;13.80;99.90
41939;DHT22;23057;48.554;14.454;2022-08-03T02:31:27;13.60;99.90
41939;DHT22;23057;48.554;14.454;2022-08-03T02:34:03;13.60;99.90
41939;DHT22;23057;48.554;14.454;2022-08-03T02:36:41;13.70;99.90
41939;DHT22;23057;48.554;14.454;2022-08-03T02:39:19;13.80;99.90
41939;DHT22;23057;48.554;14.454;2022-08-03T02:41:55;13.70;99.90
41939;DHT22;23057;48.554;14.454;2022-08-03T02:44:31;13.60;99.90
41939;DHT22;23057;48.554;14.454;2022-08-03T02:47:06;13.60;99.90
41939;DHT22;23057;48.554;14.454;2022-08-03T02:49:40;13.50;99.90
41939;DHT22;23057;48.554;14.454;2022-08-03T02:52:13;13.50;99.90
41939;DHT22;23057;48.554;14.454;2022-08-03T02:54:47;13.40;99.90
41939;DHT22;23057;48.554;14.454;2022-08-03T02:57:22;13.40;99.90
41939;DHT22;23057;48.554;14.454;2022-08-03T02:59:56;13.40;99.90
41939;DHT22;23057;48.554;14.454;2022-08-03T03:02:30;13.40;99.90
41939;DHT22;23057;48.554;14.454;2022-08-03T03:05:02;13.50;99.90
41939;DHT22;23057;48.554;14.454;2022-08-03T03:07:34;13.50;99.90
41939;DHT22;23057;48.554;14.454;2022-08-03T03:10:08;13.40;99.90
41939;DHT22;23057;48.554;14.454;2022-08-03T03:12:40;13.40;99.90
41939;DHT22;23057;48.554;14.454;2022-08-03T03:15:14;13.40;99.90
41939;DHT22;23057;48.554;14.454;2022-08-03T03:17:45;13.30;99.90
41939;DHT22;23057;48.554;14.454;2022-08-03T03:20:20;13.40;99.90
41939;DHT22;23057;48.554;14.454;2022-08-03T03:22:53;13.20;99.90
41939;DHT22;23057;48.554;14.454;2022-08-03T03:25:26;13.10;99.90
41939;DHT22;23057;48.554;14.454;2022-08-03T03:28:00;13.20;99.90
41939;DHT22;23057;48.554;14.454;2022-08-03T03:30:33;13.30;99.90
41939;DHT22;23057;48.554;14.454;2022-08-03T03:33:04;13.40;99.90
41939;DHT22;23057;48.554;14.454;2022-08-03T03:35:35;13.50;99.90
41939;DHT22;23057;48.554;14.454;2022-08-03T03:38:06;13.40;99.90
41939;DHT22;23057;48.554;14.454;2022-08-03T03:40:38;13.40;99.90
41939;DHT22;23057;48.554;14.454;2022-08-03T03:43:10;13.40;99.90
41939;DHT22;23057;48.554;14.454;2022-08-03T03:45:41;13.40;99.90
41939;DHT22;23057;48.554;14.454;2022-08-03T03:48:13;13.40;99.90
41939;DHT22;23057;48.554;14.454;2022-08-03T03:50:44;13.40;99.90
41939;DHT22;23057;48.554;14.454;2022-08-03T03:53:16;13.40;99.90
41939;DHT22;23057;48.554;14.454;2022-08-03T03:55:47;13.40;99.90
41939;DHT22;23057;48.554;14.454;2022-08-03T03:58:19;13.40;99.90
41939;DHT22;23057;48.554;14.454;2022-08-03T04:00:50;13.50;99.90
41939;DHT22;23057;48.554;14.454;2022-08-03T04:03:23;14.10;99.90
41939;DHT22;23057;48.554;14.454;2022-08-03T04:05:53;14.90;99.90
41939;DHT22;23057;48.554;14.454;2022-08-03T04:08:43;15.50;99.90
41939;DHT22;23057;48.554;14.454;2022-08-03T04:11:40;16.00;99.90
41939;DHT22;23057;48.554;14.454;2022-08-03T04:14:22;16.80;99.90
41939;DHT22;23057;48.554;14.454;2022-08-03T04:17:06;17.60;99.90
41939;DHT22;23057;48.554;14.454;2022-08-03T04:19:49;18.30;1.00
41939;DHT22;23057;48.554;14.454;2022-08-03T04:22:24;19.00;99.90
41939;DHT22;23057;48.554;14.454;2022-08-03T04:24:59;19.70;98.30
41939;DHT22;23057;48.554;14.454;2022-08-03T04:27:38;20.10;2.40
41939;DHT22;23057;48.554;14.454;2022-08-03T04:30:11;20.70;1.00
41939;DHT22;23057;48.554;14.454;2022-08-03T04:32:44;21.80;1.00
41939;DHT22;23057;48.554;14.454;2022-08-03T04:35:21;22.50;1.00
41939;DHT22;23057;48.554;14.454;2022-08-03T04:37:55;23.10;99.90
41939;DHT22;23057;48.554;14.454;2022-08-03T04:40:36;22.90;99.90
41939;DHT22;23057;48.554;14.454;2022-08-03T04:43:12;22.60;99.90
41939;DHT22;23057;48.554;14.454;2022-08-03T04:45:48;23.20;99.90
41939;DHT22;23057;48.554;14.454;2022-08-03T04:48:20;24.20;99.90
41939;DHT22;23057;48.554;14.454;2022-08-03T04:50:52;24.40;99.90
41939;DHT22;23057;48.554;14.454;2022-08-03T04:53:24;23.60;99.90
41939;DHT22;23057;48.554;14.454;2022-08-03T04:56:02;23.20;99.90
41939;DHT22;23057;48.554;14.454;2022-08-03T04:58:34;23.10;99.90
41939;DHT22;23057;48.554;14.454;2022-08-03T05:01:05;23.10;99.90
41939;DHT22;23057;48.554;14.454;2022-08-03T05:03:36;23.40;99.90
41939;DHT22;23057;48.554;14.454;2022-08-03T05:06:07;23.60;99.90
41939;DHT22;23057;48.554;14.454;2022-08-03T05:08:39;24.00;99.90
41939;DHT22;23057;48.554;14.454;2022-08-03T05:11:10;24.10;99.90
41939;DHT22;23057;48.554;14.454;2022-08-03T05:13:41;24.20;99.90
41939;DHT22;23057;48.554;14.454;2022-08-03T05:16:13;24.70;99.90
41939;DHT22;23057;48.554;14.454;2022-08-03T05:18:44;24.70;99.90
41939;DHT22;23057;48.554;14.454;2022-08-03T05:21:15;24.60;99.90
41939;DHT22;23057;48.554;14.454;2022-08-03T05:23:46;24.70;99.90
41939;DHT22;23057;48.554;14.454;2022-08-03T05:26:17;25.20;99.90
41939;DHT22;23057;48.554;14.454;2022-08-03T05:28:47;25.30;99.90
41939;DHT22;23057;48.554;14.454;2022-08-03T05:31:18;24.90;99.90
41939;DHT22;23057;48.554;14.454;2022-08-03T05:33:49;25.40;99.90
41939;DHT22;23057;48.554;14.454;2022-08-03T05:36:20;25.40;99.90
41939;DHT22;23057;48.554;14.454;2022-08-03T05:38:51;25.60;99.90
41939;DHT22;23057;48.554;14.454;2022-08-03T05:41:22;26.00;99.90
41939;DHT22;23057;48.554;14.454;2022-08-03T05:43:53;26.60;99.90
41939;DHT22;23057;48.554;14.454;2022-08-03T05:46:25;27.00;99.90
41939;DHT22;23057;48.554;14.454;2022-08-03T05:48:55;26.60;99.90
41939;DHT22;23057;48.554;14.454;2022-08-03T05:51:26;26.30;99.90
41939;DHT22;23057;48.554;14.454;2022-08-03T05:53:58;26.40;99.90
41939;DHT22;23057;48.554;14.454;2022-08-03T05:56:28;26.60;99.90
41939;DHT22;23057;48.554;14.454;2022-08-03T05:58:59;27.40;99.90
41939;DHT22;23057;48.554;14.454;2022-08-03T06:01:30;27.80;99.90
41939;DHT22;23057;48.554;14.454;2022-08-03T06:04:02;27.90;99.90
41939;DHT22;23057;48.554;14.454;2022-08-03T06:06:33;27.40;99.90
41939;DHT22;23057;48.554;14.454;2022-08-03T06:09:04;27.10;99.90
41939;DHT22;23057;48.554;14.454;2022-08-03T06:11:35;27.10;99.90
41939;DHT22;23057;48.554;14.454;2022-08-03T06:14:06;27.90;99.90
41939;DHT22;23057;48.554;14.454;2022-08-03T06:16:37;27.80;99.90
41939;DHT22;23057;48.554;14.454;2022-08-03T06:19:08;27.40;99.90
41939;DHT22;23057;48.554;14.454;2022-08-03T06:21:39;27.80;99.90
41939;DHT22;23057;48.554;14.454;2022-08-03T06:24:09;27.80;99.90
41939;DHT22;23057;48.554;14.454;2022-08-03T06:26:40;27.60;99.90
41939;DHT22;23057;48.554;14.454;2022-08-03T06:29:11;28.30;99.90
41939;DHT22;23057;48.554;14.454;2022-08-03T06:31:42;28.00;99.90
41939;DHT22;23057;48.554;14.454;2022-08-03T06:34:13;28.90;99.90
41939;DHT22;23057;48.554;14.454;2022-08-03T06:36:44;28.70;99.90
41939;DHT22;23057;48.554;14.454;2022-08-03T06:39:17;28.70;99.90
41939;DHT22;23057;48.554;14.454;2022-08-03T06:41:48;29.40;99.90
41939;DHT22;23057;48.554;14.454;2022-08-03T06:44:19;29.90;99.90
41939;DHT22;23057;48.554;14.454;2022-08-03T06:46:50;30.10;99.90
41939;DHT22;23057;48.554;14.454;2022-08-03T06:49:21;29.70;99.90
41939;DHT22;23057;48.554;14.454;2022-08-03T06:51:52;28.90;99.90
41939;DHT22;23057;48.554;14.454;2022-08-03T06:54:23;28.90;99.90
41939;DHT22;23057;48.554;14.454;2022-08-03T06:56:54;28.80;99.90
41939;DHT22;23057;48.554;14.454;2022-08-03T06:59:25;28.60;99.90
41939;DHT22;23057;48.554;14.454;2022-08-03T07:01:55;28.50;99.90
41939;DHT22;23057;48.554;14.454;2022-08-03T07:04:26;28.70;99.90
41939;DHT22;23057;48.554;14.454;2022-08-03T07:06:57;28.30;99.90
41939;DHT22;23057;48.554;14.454;2022-08-03T07:09:28;27.80;99.90
41939;DHT22;23057;48.554;14.454;2022-08-03T07:11:58;27.10;99.90
41939;DHT22;23057;48.554;14.454;2022-08-03T07:14:31;26.50;99.90
41939;DHT22;23057;48.554;14.454;2022-08-03T07:17:02;26.50;99.90
41939;DHT22;23057;48.554;14.454;2022-08-03T07:19:33;26.70;99.90
41939;DHT22;23057;48.554;14.454;2022-08-03T07:22:03;26.80;99.90
41939;DHT22;23057;48.554;14.454;2022-08-03T07:24:35;26.90;99.90
41939;DHT22;23057;48.554;14.454;2022-08-03T07:27:07;26.90;99.90
41939;DHT22;23057;48.554;14.454;2022-08-03T07:29:39;26.90;99.90
41939;DHT22;23057;48.554;14.454;2022-08-03T07:32:10;26.10;99.90
41939;DHT22;23057;48.554;14.454;2022-08-03T07:34:40;25.90;99.90
41939;DHT22;23057;48.554;14.454;2022-08-03T07:37:11;26.60;99.90
41939;DHT22;23057;48.554;14.454;2022-08-03T07:39:42;27.20;99.90
41939;DHT22;23057;48.554;14.454;2022-08-03T07:42:13;27.10;99.90
41939;DHT22;23057;48.554;14.454;2022-08-03T07:44:44;27.40;99.90
41939;DHT22;23057;48.554;14.454;2022-08-03T07:47:18;27.10;99.90
41939;DHT22;23057;48.554;14.454;2022-08-03T07:49:53;27.20;99.90
41939;DHT22;23057;48.554;14.454;2022-08-03T07:52:25;27.50;99.90
41939;DHT22;23057;48.554;14.454;2022-08-03T07:55:15;27.20;99.90
41939;DHT22;23057;48.554;14.454;2022-08-03T07:57:57;27.30;99.90
41939;DHT22;23057;48.554;14.454;2022-08-03T08:00:41;27.70;99.90
41939;DHT22;23057;48.554;14.454;2022-08-03T08:03:13;27.60;99.90
41939;DHT22;23057;48.554;14.454;2022-08-03T08:05:44;27.70;99.90
41939;DHT22;23057;48.554;14.454;2022-08-03T08:08:15;27.90;99.90
41939;DHT22;23057;48.554;14.454;2022-08-03T08:10:46;27.90;99.90
41939;DHT22;23057;48.554;14.454;2022-08-03T08:13:17;27.70;99.90
41939;DHT22;23057;48.554;14.454;2022-08-03T08:15:48;27.60;99.90
41939;DHT22;23057;48.554;14.454;2022-08-03T08:18:18;27.50;99.90
41939;DHT22;23057;48.554;14.454;2022-08-03T08:20:50;27.50;99.90
41939;DHT22;23057;48.554;14.454;2022-08-03T08:23:21;28.00;99.90
41939;DHT22;23057;48.554;14.454;2022-08-03T08:25:54;28.00;99.90
41939;DHT22;23057;48.554;14.454;2022-08-03T08:28:25;28.30;99.90
41939;DHT22;23057;48.554;14.454;2022-08-03T08:30:57;28.30;99.90
41939;DHT22;23057;48.554;14.454;2022-08-03T08:33:28;28.00;99.90
41939;DHT22;23057;48.554;14.454;2022-08-03T08:35:59;28.10;99.90
41939;DHT22;23057;48.554;14.454;2022-08-03T08:38:30;27.90;99.90
41939;DHT22;23057;48.554;14.454;2022-08-03T08:41:04;27.50;99.90
41939;DHT22;23057;48.554;14.454;2022-08-03T08:43:35;28.00;99.90
41939;DHT22;23057;48.554;14.454;2022-08-03T08:46:06;28.00;99.90
41939;DHT22;23057;48.554;14.454;2022-08-03T08:48:42;27.90;99.90
41939;DHT22;23057;48.554;14.454;2022-08-03T08:51:15;28.00;99.90
41939;DHT22;23057;48.554;14.454;2022-08-03T08:53:50;27.90;99.90
41939;DHT22;23057;48.554;14.454;2022-08-03T08:56:24;27.50;99.90
41939;DHT22;23057;48.554;14.454;2022-08-03T08:58:59;28.00;99.90
41939;DHT22;23057;48.554;14.454;2022-08-03T09:01:31;28.40;99.90
41939;DHT22;23057;48.554;14.454;2022-08-03T09:04:04;28.20;99.90
41939;DHT22;23057;48.554;14.454;2022-08-03T09:06:36;28.40;99.90
41939;DHT22;23057;48.554;14.454;2022-08-03T09:09:07;27.60;99.90
41939;DHT22;23057;48.554;14.454;2022-08-03T09:11:41;27.30;99.90
41939;DHT22;23057;48.554;14.454;2022-08-03T09:14:12;27.60;99.90
41939;DHT22;23057;48.554;14.454;2022-08-03T09:16:56;27.90;99.90
41939;DHT22;23057;48.554;14.454;2022-08-03T09:19:33;28.00;99.90
41939;DHT22;23057;48.554;14.454;2022-08-03T09:22:14;27.40;99.90
41939;DHT22;23057;48.554;14.454;2022-08-03T09:24:54;27.70;99.90
41939;DHT22;23057;48.554;14.454;2022-08-03T09:27:41;27.50;99.90
41939;DHT22;23057;48.554;14.454;2022-08-03T09:30:15;28.00;99.90
41939;DHT22;23057;48.554;14.454;2022-08-03T09:32:47;27.90;99.90
41939;DHT22;23057;48.554;14.454;2022-08-03T09:35:18;28.10;99.90
41939;DHT22;23057;48.554;14.454;2022-08-03T09:40:49;27.30;99.90
41939;DHT22;23057;48.554;14.454;2022-08-03T09:43:20;27.60;99.90
41939;DHT22;23057;48.554;14.454;2022-08-03T09:45:51;27.60;99.90
41939;DHT22;23057;48.554;14.454;2022-08-03T09:48:33;28.10;99.90
41939;DHT22;23057;48.554;14.454;2022-08-03T09:51:06;28.50;99.90
41939;DHT22;23057;48.554;14.454;2022-08-03T09:53:41;28.80;99.90
41939;DHT22;23057;48.554;14.454;2022-08-03T09:56:14;28.70;99.90
41939;DHT22;23057;48.554;14.454;2022-08-03T09:58:45;28.20;99.90
41939;DHT22;23057;48.554;14.454;2022-08-03T10:01:17;28.70;99.90
41939;DHT22;23057;48.554;14.454;2022-08-03T10:03:49;29.10;99.90
41939;DHT22;23057;48.554;14.454;2022-08-03T10:06:29;29.40;99.90
41939;DHT22;23057;48.554;14.454;2022-08-03T10:09:04;28.80;99.90
41939;DHT22;23057;48.554;14.454;2022-08-03T10:11:45;29.10;99.90
41939;DHT22;23057;48.554;14.454;2022-08-03T10:14:16;29.50;99.90
41939;DHT22;23057;48.554;14.454;2022-08-03T10:16:51;29.10;99.90
41939;DHT22;23057;48.554;14.454;2022-08-03T10:19:22;29.00;99.90
41939;DHT22;23057;48.554;14.454;2022-08-03T10:21:55;29.00;99.90
41939;DHT22;23057;48.554;14.454;2022-08-03T10:24:33;29.30;99.90
41939;DHT22;23057;48.554;14.454;2022-08-03T10:27:06;29.70;99.90
41939;DHT22;23057;48.554;14.454;2022-08-03T10:29:37;29.40;99.90
41939;DHT22;23057;48.554;14.454;2022-08-03T10:32:17;30.00;99.90
41939;DHT22;23057;48.554;14.454;2022-08-03T10:38:00;29.70;99.90
41939;DHT22;23057;48.554;14.454;2022-08-03T10:40:37;29.60;99.90
41939;DHT22;23057;48.554;14.454;2022-08-03T10:43:11;29.40;99.90
41939;DHT22;23057;48.554;14.454;2022-08-03T10:46:03;28.70;99.90
41939;DHT22;23057;48.554;14.454;2022-08-03T10:48:37;29.00;99.90
41939;DHT22;23057;48.554;14.454;2022-08-03T10:51:09;29.40;99.90
41939;DHT22;23057;48.554;14.454;2022-08-03T10:53:41;29.80;99.90
41939;DHT22;23057;48.554;14.454;2022-08-03T11:02:20;30.10;99.90
41939;DHT22;23057;48.554;14.454;2022-08-03T11:05:02;30.00;99.90
41939;DHT22;23057;48.554;14.454;2022-08-03T11:08:17;29.60;99.90
41939;DHT22;23057;48.554;14.454;2022-08-03T11:14:01;28.10;99.90
41939;DHT22;23057;48.554;14.454;2022-08-03T11:16:42;28.20;99.90
41939;DHT22;23057;48.554;14.454;2022-08-03T11:19:18;28.10;99.90
41939;DHT22;23057;48.554;14.454;2022-08-03T11:21:55;28.70;99.90
41939;DHT22;23057;48.554;14.454;2022-08-03T11:27:19;29.70;99.90
41939;DHT22;23057;48.554;14.454;2022-08-03T11:30:05;30.20;99.90
41939;DHT22;23057;48.554;14.454;2022-08-03T11:35:08;30.00;99.90
41939;DHT22;23057;48.554;14.454;2022-08-03T11:40:31;29.20;99.90
41939;DHT22;23057;48.554;14.454;2022-08-03T11:43:03;29.40;99.90
41939;DHT22;23057;48.554;14.454;2022-08-03T11:45:59;29.80;99.90
41939;DHT22;23057;48.554;14.454;2022-08-03T11:48:40;29.40;99.90
41939;DHT22;23057;48.554;14.454;2022-08-03T11:51:32;29.50;99.90
41939;DHT22;23057;48.554;14.454;2022-08-03T11:54:05;29.50;99.90
41939;DHT22;23057;48.554;14.454;2022-08-03T11:56:46;29.00;99.90
41939;DHT22;23057;48.554;14.454;2022-08-03T11:59:19;28.80;99.90
41939;DHT22;23057;48.554;14.454;2022-08-03T12:02:06;29.10;99.90
41939;DHT22;23057;48.554;14.454;2022-08-03T12:04:55;29.80;99.90
41939;DHT22;23057;48.554;14.454;2022-08-03T12:07:31;30.00;99.90
41939;DHT22;23057;48.554;14.454;2022-08-03T12:10:12;30.40;99.90
41939;DHT22;23057;48.554;14.454;2022-08-03T12:12:44;30.30;99.90
41939;DHT22;23057;48.554;14.454;2022-08-03T12:15:15;30.40;99.90
41939;DHT22;23057;48.554;14.454;2022-08-03T12:17:46;30.30;99.90
41939;DHT22;23057;48.554;14.454;2022-08-03T12:20:23;30.10;99.90
41939;DHT22;23057;48.554;14.454;2022-08-03T12:23:03;29.50;99.90
41939;DHT22;23057;48.554;14.454;2022-08-03T12:25:36;30.30;99.90
41939;DHT22;23057;48.554;14.454;2022-08-03T12:28:11;30.10;99.90
41939;DHT22;23057;48.554;14.454;2022-08-03T12:30:49;29.70;99.90
41939;DHT22;23057;48.554;14.454;2022-08-03T12:33:23;29.90;99.90
41939;DHT22;23057;48.554;14.454;2022-08-03T12:36:06;30.00;99.90
41939;DHT22;23057;48.554;14.454;2022-08-03T12:38:40;30.10;99.90
41939;DHT22;23057;48.554;14.454;2022-08-03T12:41:11;30.50;99.90
41939;DHT22;23057;48.554;14.454;2022-08-03T12:43:48;30.00;99.90
41939;DHT22;23057;48.554;14.454;2022-08-03T12:46:20;30.00;99.90
41939;DHT22;23057;48.554;14.454;2022-08-03T12:49:24;30.00;99.90
41939;DHT22;23057;48.554;14.454;2022-08-03T12:54:20;30.30;99.90
41939;DHT22;23057;48.554;14.454;2022-08-03T12:59:34;29.70;99.90
41939;DHT22;23057;48.554;14.454;2022-08-03T13:02:15;30.20;99.90
41939;DHT22;23057;48.554;14.454;2022-08-03T13:04:54;30.30;99.90
41939;DHT22;23057;48.554;14.454;2022-08-03T13:07:25;30.60;99.90
41939;DHT22;23057;48.554;14.454;2022-08-03T13:09:56;30.00;99.90
41939;DHT22;23057;48.554;14.454;2022-08-03T13:12:27;29.40;99.90
41939;DHT22;23057;48.554;14.454;2022-08-03T13:14:59;29.80;99.90
41939;DHT22;23057;48.554;14.454;2022-08-03T13:17:30;29.90;99.90
41939;DHT22;23057;48.554;14.454;2022-08-03T13:20:01;30.00;99.90
41939;DHT22;23057;48.554;14.454;2022-08-03T13:22:33;29.70;99.90
41939;DHT22;23057;48.554;14.454;2022-08-03T13:25:04;29.90;99.90
41939;DHT22;23057;48.554;14.454;2022-08-03T13:27:35;29.80;99.90
41939;DHT22;23057;48.554;14.454;2022-08-03T13:30:06;29.80;99.90
41939;DHT22;23057;48.554;14.454;2022-08-03T13:32:38;29.60;99.90
41939;DHT22;23057;48.554;14.454;2022-08-03T13:35:09;30.10;99.90
41939;DHT22;23057;48.554;14.454;2022-08-03T13:37:40;30.30;99.90
41939;DHT22;23057;48.554;14.454;2022-08-03T13:40:11;30.50;99.90
41939;DHT22;23057;48.554;14.454;2022-08-03T13:42:42;30.70;99.90
41939;DHT22;23057;48.554;14.454;2022-08-03T13:45:13;30.50;99.90
41939;DHT22;23057;48.554;14.454;2022-08-03T13:47:44;30.10;99.90
41939;DHT22;23057;48.554;14.454;2022-08-03T13:50:15;29.40;99.90
41939;DHT22;23057;48.554;14.454;2022-08-03T13:52:45;29.20;99.90
41939;DHT22;23057;48.554;14.454;2022-08-03T13:55:17;29.20;99.90
41939;DHT22;23057;48.554;14.454;2022-08-03T13:57:48;29.10;99.90
41939;DHT22;23057;48.554;14.454;2022-08-03T14:00:19;29.30;99.90
41939;DHT22;23057;48.554;14.454;2022-08-03T14:02:56;29.60;99.90
41939;DHT22;23057;48.554;14.454;2022-08-03T14:05:29;29.70;99.90
41939;DHT22;23057;48.554;14.454;2022-08-03T14:08:01;29.50;99.90
41939;DHT22;23057;48.554;14.454;2022-08-03T14:10:35;29.60;99.90
41939;DHT22;23057;48.554;14.454;2022-08-03T14:13:09;29.50;99.90
41939;DHT22;23057;48.554;14.454;2022-08-03T14:15:42;29.50;99.90
41939;DHT22;23057;48.554;14.454;2022-08-03T14:18:12;29.60;99.90
41939;DHT22;23057;48.554;14.454;2022-08-03T14:20:43;29.80;99.90
41939;DHT22;23057;48.554;14.454;2022-08-03T14:23:14;29.70;99.90
41939;DHT22;23057;48.554;14.454;2022-08-03T14:25:46;29.70;99.90
41939;DHT22;23057;48.554;14.454;2022-08-03T14:28:17;29.80;99.90
41939;DHT22;23057;48.554;14.454;2022-08-03T14:30:53;29.70;99.90
41939;DHT22;23057;48.554;14.454;2022-08-03T14:33:25;29.80;99.90
41939;DHT22;23057;48.554;14.454;2022-08-03T14:35:57;29.90;99.90
41939;DHT22;23057;48.554;14.454;2022-08-03T14:38:28;29.50;99.90
41939;DHT22;23057;48.554;14.454;2022-08-03T14:40:59;29.20;99.90
41939;DHT22;23057;48.554;14.454;2022-08-03T14:43:30;29.40;99.90
41939;DHT22;23057;48.554;14.454;2022-08-03T14:46:01;29.50;99.90
41939;DHT22;23057;48.554;14.454;2022-08-03T14:48:32;29.70;99.90
41939;DHT22;23057;48.554;14.454;2022-08-03T14:51:03;29.70;99.90
41939;DHT22;23057;48.554;14.454;2022-08-03T14:53:35;29.70;99.90
41939;DHT22;23057;48.554;14.454;2022-08-03T14:56:07;29.50;99.90
41939;DHT22;23057;48.554;14.454;2022-08-03T14:58:38;29.40;99.90
41939;DHT22;23057;48.554;14.454;2022-08-03T15:01:08;29.50;99.90
41939;DHT22;23057;48.554;14.454;2022-08-03T15:03:39;29.40;99.90
41939;DHT22;23057;48.554;14.454;2022-08-03T15:06:11;29.40;99.90
41939;DHT22;23057;48.554;14.454;2022-08-03T15:08:41;29.40;99.90
41939;DHT22;23057;48.554;14.454;2022-08-03T15:11:12;29.60;99.90
41939;DHT22;23057;48.554;14.454;2022-08-03T15:13:43;29.50;99.90
41939;DHT22;23057;48.554;14.454;2022-08-03T15:16:14;29.40;99.90
41939;DHT22;23057;48.554;14.454;2022-08-03T15:18:45;29.30;99.90
41939;DHT22;23057;48.554;14.454;2022-08-03T15:21:16;29.30;99.90
41939;DHT22;23057;48.554;14.454;2022-08-03T15:23:47;29.20;99.90
41939;DHT22;23057;48.554;14.454;2022-08-03T15:26:17;29.20;99.90
41939;DHT22;23057;48.554;14.454;2022-08-03T15:28:48;29.30;99.90
41939;DHT22;23057;48.554;14.454;2022-08-03T15:31:19;29.10;99.90
41939;DHT22;23057;48.554;14.454;2022-08-03T15:33:52;29.00;99.90
41939;DHT22;23057;48.554;14.454;2022-08-03T15:36:23;29.00;99.90
41939;DHT22;23057;48.554;14.454;2022-08-03T15:38:54;29.00;99.90
41939;DHT22;23057;48.554;14.454;2022-08-03T15:41:25;29.00;99.90
41939;DHT22;23057;48.554;14.454;2022-08-03T15:43:55;28.90;99.90
41939;DHT22;23057;48.554;14.454;2022-08-03T15:46:26;28.90;99.90
41939;DHT22;23057;48.554;14.454;2022-08-03T15:48:57;28.80;99.90
41939;DHT22;23057;48.554;14.454;2022-08-03T15:51:28;28.80;99.90
41939;DHT22;23057;48.554;14.454;2022-08-03T15:53:59;28.80;99.90
41939;DHT22;23057;48.554;14.454;2022-08-03T15:56:30;28.90;99.90
41939;DHT22;23057;48.554;14.454;2022-08-03T15:59:01;29.00;99.90
41939;DHT22;23057;48.554;14.454;2022-08-03T16:01:31;28.90;99.90
41939;DHT22;23057;48.554;14.454;2022-08-03T16:04:02;28.70;99.90
41939;DHT22;23057;48.554;14.454;2022-08-03T16:06:33;28.60;99.90
41939;DHT22;23057;48.554;14.454;2022-08-03T16:09:05;28.60;99.90
41939;DHT22;23057;48.554;14.454;2022-08-03T16:11:37;28.50;99.90
41939;DHT22;23057;48.554;14.454;2022-08-03T16:14:08;28.30;99.90
41939;DHT22;23057;48.554;14.454;2022-08-03T16:16:39;28.40;99.90
41939;DHT22;23057;48.554;14.454;2022-08-03T16:19:10;28.20;99.90
41939;DHT22;23057;48.554;14.454;2022-08-03T16:21:41;28.20;99.90
41939;DHT22;23057;48.554;14.454;2022-08-03T16:24:12;28.20;99.90
41939;DHT22;23057;48.554;14.454;2022-08-03T16:26:42;28.30;99.90
41939;DHT22;23057;48.554;14.454;2022-08-03T16:29:13;28.20;99.90
41939;DHT22;23057;48.554;14.454;2022-08-03T16:31:44;28.20;99.90